sensor_id;sensor_type;location;lat;lon;timestamp;P1;durP1;ratioP1;P2;durP2;ratioP2
6348;SDS011;3207;42.648;23.406;2022-10-16T00:02:13;53.63;;;44.42;;
6348;SDS011;3207;42.648;23.406;2022-10-16T00:04:40;52.85;;;43.20;;
6348;SDS011;3207;42.648;23.406;2022-10-16T00:07:07;51.72;;;42.30;;
6348;SDS011;3207;42.648;23.406;2022-10-16T00:09:34;50.78;;;42.63;;
6348;SDS011;3207;42.648;23.406;2022-10-16T00:12:02;53.58;;;42.13;;
6348;SDS011;3207;42.648;23.406;2022-10-16T00:14:31;48.15;;;40.65;;
6348;SDS011;3207;42.648;23.406;2022-10-16T00:16:58;56.00;;;44.05;;
6348;SDS011;3207;42.648;23.406;2022-10-16T00:19:25;57.88;;;44.25;;
6348;SDS011;3207;42.648;23.406;2022-10-16T00:21:52;55.35;;;45.33;;
6348;SDS011;3207;42.648;23.406;2022-10-16T00:24:19;50.10;;;42.58;;
6348;SDS011;3207;42.648;23.406;2022-10-16T00:26:45;52.28;;;43.90;;
6348;SDS011;3207;42.648;23.406;2022-10-16T00:29:17;58.55;;;46.00;;
6348;SDS011;3207;42.648;23.406;2022-10-16T00:31:43;57.45;;;46.65;;
6348;SDS011;3207;42.648;23.406;2022-10-16T00:34:10;60.00;;;45.55;;
6348;SDS011;3207;42.648;23.406;2022-10-16T00:36:37;58.17;;;44.95;;
6348;SDS011;3207;42.648;23.406;2022-10-16T00:39:04;57.85;;;46.88;;
6348;SDS011;3207;42.648;23.406;2022-10-16T00:41:32;59.65;;;44.63;;
6348;SDS011;3207;42.648;23.406;2022-10-16T00:44:00;55.28;;;44.05;;
6348;SDS011;3207;42.648;23.406;2022-10-16T00:46:29;53.70;;;42.92;;
6348;SDS011;3207;42.648;23.406;2022-10-16T00:49:03;52.75;;;41.08;;
6348;SDS011;3207;42.648;23.406;2022-10-16T00:51:33;49.10;;;40.40;;
6348;SDS011;3207;42.648;23.406;2022-10-16T00:54:01;52.08;;;40.38;;
6348;SDS011;3207;42.648;23.406;2022-10-16T00:56:30;50.42;;;41.72;;
6348;SDS011;3207;42.648;23.406;2022-10-16T00:58:58;49.95;;;39.92;;
6348;SDS011;3207;42.648;23.406;2022-10-16T01:01:28;50.05;;;40.70;;
6348;SDS011;3207;42.648;23.406;2022-10-16T01:03:55;43.97;;;37.67;;
6348;SDS011;3207;42.648;23.406;2022-10-16T01:06:23;48.53;;;38.53;;
6348;SDS011;3207;42.648;23.406;2022-10-16T01:08:57;45.45;;;39.72;;
6348;SDS011;3207;42.648;23.406;2022-10-16T01:11:34;41.30;;;35.78;;
6348;SDS011;3207;42.648;23.406;2022-10-16T01:14:09;42.80;;;36.05;;
6348;SDS011;3207;42.648;23.406;2022-10-16T01:16:43;43.13;;;36.40;;
6348;SDS011;3207;42.648;23.406;2022-10-16T01:19:16;43.72;;;36.58;;
6348;SDS011;3207;42.648;23.406;2022-10-16T01:21:52;44.35;;;39.33;;
6348;SDS011;3207;42.648;23.406;2022-10-16T01:24:24;46.00;;;38.75;;
6348;SDS011;3207;42.648;23.406;2022-10-16T01:27:09;41.65;;;37.25;;
6348;SDS011;3207;42.648;23.406;2022-10-16T01:29:39;41.42;;;34.90;;
6348;SDS011;3207;42.648;23.406;2022-10-16T01:32:15;41.80;;;35.58;;
6348;SDS011;3207;42.648;23.406;2022-10-16T01:34:47;44.67;;;35.58;;
6348;SDS011;3207;42.648;23.406;2022-10-16T01:37:20;42.08;;;36.03;;
6348;SDS011;3207;42.648;23.406;2022-10-16T01:39:55;40.88;;;36.28;;
6348;SDS011;3207;42.648;23.406;2022-10-16T01:42:28;45.47;;;37.30;;
6348;SDS011;3207;42.648;23.406;2022-10-16T01:45:01;39.03;;;34.55;;
6348;SDS011;3207;42.648;23.406;2022-10-16T01:47:31;39.65;;;34.00;;
6348;SDS011;3207;42.648;23.406;2022-10-16T01:49:59;43.55;;;35.70;;
6348;SDS011;3207;42.648;23.406;2022-10-16T01:52:30;39.45;;;35.30;;
6348;SDS011;3207;42.648;23.406;2022-10-16T01:55:00;42.25;;;35.50;;
6348;SDS011;3207;42.648;23.406;2022-10-16T01:57:32;40.70;;;35.33;;
6348;SDS011;3207;42.648;23.406;2022-10-16T02:00:04;39.80;;;35.60;;
6348;SDS011;3207;42.648;23.406;2022-10-16T02:02:34;41.10;;;34.10;;
6348;SDS011;3207;42.648;23.406;2022-10-16T02:05:04;40.20;;;34.55;;
6348;SDS011;3207;42.648;23.406;2022-10-16T02:07:35;44.15;;;35.55;;
6348;SDS011;3207;42.648;23.406;2022-10-16T02:10:02;39.63;;;34.38;;
6348;SDS011;3207;42.648;23.406;2022-10-16T02:12:31;39.70;;;33.75;;
6348;SDS011;3207;42.648;23.406;2022-10-16T02:15:00;41.13;;;35.72;;
6348;SDS011;3207;42.648;23.406;2022-10-16T02:17:27;37.70;;;32.92;;
6348;SDS011;3207;42.648;23.406;2022-10-16T02:19:54;40.58;;;36.10;;
6348;SDS011;3207;42.648;23.406;2022-10-16T02:22:24;43.90;;;37.15;;
6348;SDS011;3207;42.648;23.406;2022-10-16T02:24:56;39.47;;;34.67;;
6348;SDS011;3207;42.648;23.406;2022-10-16T02:27:26;41.15;;;34.88;;
6348;SDS011;3207;42.648;23.406;2022-10-16T02:30:00;42.25;;;34.67;;
6348;SDS011;3207;42.648;23.406;2022-10-16T02:32:33;48.45;;;37.05;;
6348;SDS011;3207;42.648;23.406;2022-10-16T02:35:03;39.83;;;35.13;;
6348;SDS011;3207;42.648;23.406;2022-10-16T02:37:32;38.42;;;34.30;;
6348;SDS011;3207;42.648;23.406;2022-10-16T02:39:59;40.42;;;35.22;;
6348;SDS011;3207;42.648;23.406;2022-10-16T02:42:28;43.55;;;36.17;;
6348;SDS011;3207;42.648;23.406;2022-10-16T02:44:55;41.42;;;35.50;;
6348;SDS011;3207;42.648;23.406;2022-10-16T02:47:24;41.42;;;36.13;;
6348;SDS011;3207;42.648;23.406;2022-10-16T02:49:50;46.08;;;35.92;;
6348;SDS011;3207;42.648;23.406;2022-10-16T02:52:17;45.22;;;35.78;;
6348;SDS011;3207;42.648;23.406;2022-10-16T02:54:44;43.33;;;36.35;;
6348;SDS011;3207;42.648;23.406;2022-10-16T02:57:11;44.97;;;35.97;;
6348;SDS011;3207;42.648;23.406;2022-10-16T02:59:38;47.40;;;38.00;;
6348;SDS011;3207;42.648;23.406;2022-10-16T03:02:05;45.10;;;36.95;;
6348;SDS011;3207;42.648;23.406;2022-10-16T03:04:33;46.42;;;39.25;;
6348;SDS011;3207;42.648;23.406;2022-10-16T03:07:00;40.65;;;34.08;;
6348;SDS011;3207;42.648;23.406;2022-10-16T03:09:26;37.75;;;33.70;;
6348;SDS011;3207;42.648;23.406;2022-10-16T03:11:53;37.92;;;32.08;;
6348;SDS011;3207;42.648;23.406;2022-10-16T03:14:20;34.53;;;30.73;;
6348;SDS011;3207;42.648;23.406;2022-10-16T03:16:47;37.92;;;32.55;;
6348;SDS011;3207;42.648;23.406;2022-10-16T03:19:15;37.72;;;33.70;;
6348;SDS011;3207;42.648;23.406;2022-10-16T03:21:44;40.83;;;31.95;;
6348;SDS011;3207;42.648;23.406;2022-10-16T03:24:11;38.92;;;33.95;;
6348;SDS011;3207;42.648;23.406;2022-10-16T03:26:37;37.50;;;32.33;;
6348;SDS011;3207;42.648;23.406;2022-10-16T03:29:04;35.50;;;30.52;;
6348;SDS011;3207;42.648;23.406;2022-10-16T03:31:31;63.92;;;32.35;;
6348;SDS011;3207;42.648;23.406;2022-10-16T03:33:58;34.75;;;30.05;;
6348;SDS011;3207;42.648;23.406;2022-10-16T03:36:25;35.92;;;32.10;;
6348;SDS011;3207;42.648;23.406;2022-10-16T03:38:53;35.25;;;30.60;;
6348;SDS011;3207;42.648;23.406;2022-10-16T03:41:20;36.03;;;31.70;;
6348;SDS011;3207;42.648;23.406;2022-10-16T03:43:47;33.20;;;28.95;;
6348;SDS011;3207;42.648;23.406;2022-10-16T03:46:14;36.30;;;32.08;;
6348;SDS011;3207;42.648;23.406;2022-10-16T03:48:41;34.15;;;30.10;;
6348;SDS011;3207;42.648;23.406;2022-10-16T03:51:07;33.53;;;30.02;;
6348;SDS011;3207;42.648;23.406;2022-10-16T03:53:34;37.92;;;29.58;;
6348;SDS011;3207;42.648;23.406;2022-10-16T03:56:02;33.92;;;29.65;;
6348;SDS011;3207;42.648;23.406;2022-10-16T03:58:29;32.05;;;28.63;;
6348;SDS011;3207;42.648;23.406;2022-10-16T04:00:56;40.05;;;30.77;;
6348;SDS011;3207;42.648;23.406;2022-10-16T04:03:23;46.47;;;30.70;;
6348;SDS011;3207;42.648;23.406;2022-10-16T04:05:50;34.05;;;29.60;;
6348;SDS011;3207;42.648;23.406;2022-10-16T04:08:16;33.88;;;30.02;;
6348;SDS011;3207;42.648;23.406;2022-10-16T04:10:43;34.03;;;30.45;;
6348;SDS011;3207;42.648;23.406;2022-10-16T04:13:12;32.97;;;29.42;;
6348;SDS011;3207;42.648;23.406;2022-10-16T04:15:39;37.05;;;31.33;;
6348;SDS011;3207;42.648;23.406;2022-10-16T04:18:06;32.35;;;28.85;;
6348;SDS011;3207;42.648;23.406;2022-10-16T04:20:33;33.95;;;29.42;;
6348;SDS011;3207;42.648;23.406;2022-10-16T04:23:00;36.88;;;29.63;;
6348;SDS011;3207;42.648;23.406;2022-10-16T04:25:27;33.50;;;29.10;;
6348;SDS011;3207;42.648;23.406;2022-10-16T04:27:54;31.95;;;28.40;;
6348;SDS011;3207;42.648;23.406;2022-10-16T04:30:23;35.28;;;29.80;;
6348;SDS011;3207;42.648;23.406;2022-10-16T04:32:50;32.17;;;28.65;;
6348;SDS011;3207;42.648;23.406;2022-10-16T04:35:17;32.05;;;28.33;;
6348;SDS011;3207;42.648;23.406;2022-10-16T04:37:45;34.00;;;29.13;;
6348;SDS011;3207;42.648;23.406;2022-10-16T04:40:12;32.65;;;28.58;;
6348;SDS011;3207;42.648;23.406;2022-10-16T04:42:39;38.45;;;30.00;;
6348;SDS011;3207;42.648;23.406;2022-10-16T04:45:07;35.70;;;28.42;;
6348;SDS011;3207;42.648;23.406;2022-10-16T04:47:36;40.10;;;28.88;;
6348;SDS011;3207;42.648;23.406;2022-10-16T04:50:03;43.50;;;30.33;;
6348;SDS011;3207;42.648;23.406;2022-10-16T04:52:31;36.53;;;29.60;;
6348;SDS011;3207;42.648;23.406;2022-10-16T04:54:58;34.78;;;30.20;;
6348;SDS011;3207;42.648;23.406;2022-10-16T04:57:27;37.92;;;30.85;;
6348;SDS011;3207;42.648;23.406;2022-10-16T04:59:54;37.00;;;30.42;;
6348;SDS011;3207;42.648;23.406;2022-10-16T05:02:21;43.13;;;31.20;;
6348;SDS011;3207;42.648;23.406;2022-10-16T05:04:49;38.53;;;31.52;;
6348;SDS011;3207;42.648;23.406;2022-10-16T05:07:16;35.58;;;31.08;;
6348;SDS011;3207;42.648;23.406;2022-10-16T05:09:43;33.53;;;29.90;;
6348;SDS011;3207;42.648;23.406;2022-10-16T05:12:10;34.30;;;30.70;;
6348;SDS011;3207;42.648;23.406;2022-10-16T05:14:37;34.72;;;30.92;;
6348;SDS011;3207;42.648;23.406;2022-10-16T05:17:04;33.60;;;29.73;;
6348;SDS011;3207;42.648;23.406;2022-10-16T05:19:30;35.42;;;30.48;;
6348;SDS011;3207;42.648;23.406;2022-10-16T05:21:59;34.72;;;29.70;;
6348;SDS011;3207;42.648;23.406;2022-10-16T05:24:26;34.55;;;28.30;;
6348;SDS011;3207;42.648;23.406;2022-10-16T05:26:53;34.22;;;29.08;;
6348;SDS011;3207;42.648;23.406;2022-10-16T05:29:20;36.30;;;31.45;;
6348;SDS011;3207;42.648;23.406;2022-10-16T05:31:49;34.28;;;30.30;;
6348;SDS011;3207;42.648;23.406;2022-10-16T05:34:16;35.58;;;29.73;;
6348;SDS011;3207;42.648;23.406;2022-10-16T05:36:43;36.40;;;29.42;;
6348;SDS011;3207;42.648;23.406;2022-10-16T05:39:13;44.17;;;30.73;;
6348;SDS011;3207;42.648;23.406;2022-10-16T05:41:40;56.38;;;28.92;;
6348;SDS011;3207;42.648;23.406;2022-10-16T05:44:06;43.70;;;32.40;;
6348;SDS011;3207;42.648;23.406;2022-10-16T05:46:33;55.03;;;31.35;;
6348;SDS011;3207;42.648;23.406;2022-10-16T05:49:00;47.67;;;32.50;;
6348;SDS011;3207;42.648;23.406;2022-10-16T05:51:27;49.75;;;32.88;;
6348;SDS011;3207;42.648;23.406;2022-10-16T05:53:54;41.85;;;34.47;;
6348;SDS011;3207;42.648;23.406;2022-10-16T05:56:22;57.45;;;33.28;;
6348;SDS011;3207;42.648;23.406;2022-10-16T05:58:49;59.88;;;33.28;;
6348;SDS011;3207;42.648;23.406;2022-10-16T06:01:16;43.20;;;35.33;;
6348;SDS011;3207;42.648;23.406;2022-10-16T06:03:45;83.80;;;38.30;;
6348;SDS011;3207;42.648;23.406;2022-10-16T06:06:13;52.30;;;35.15;;
6348;SDS011;3207;42.648;23.406;2022-10-16T06:08:42;48.55;;;34.50;;
6348;SDS011;3207;42.648;23.406;2022-10-16T06:11:11;54.95;;;36.47;;
6348;SDS011;3207;42.648;23.406;2022-10-16T06:13:41;80.95;;;36.50;;
6348;SDS011;3207;42.648;23.406;2022-10-16T06:16:08;61.97;;;35.72;;
6348;SDS011;3207;42.648;23.406;2022-10-16T06:18:35;129.55;;;37.72;;
6348;SDS011;3207;42.648;23.406;2022-10-16T06:21:06;60.00;;;38.63;;
6348;SDS011;3207;42.648;23.406;2022-10-16T06:23:34;58.10;;;38.67;;
6348;SDS011;3207;42.648;23.406;2022-10-16T06:26:04;87.03;;;40.17;;
6348;SDS011;3207;42.648;23.406;2022-10-16T06:28:32;71.35;;;41.83;;
6348;SDS011;3207;42.648;23.406;2022-10-16T06:31:00;60.97;;;40.58;;
6348;SDS011;3207;42.648;23.406;2022-10-16T06:33:27;57.38;;;39.17;;
6348;SDS011;3207;42.648;23.406;2022-10-16T06:35:59;69.90;;;38.97;;
6348;SDS011;3207;42.648;23.406;2022-10-16T06:38:26;59.97;;;37.88;;
6348;SDS011;3207;42.648;23.406;2022-10-16T06:40:53;48.70;;;37.67;;
6348;SDS011;3207;42.648;23.406;2022-10-16T06:43:20;52.20;;;36.45;;
6348;SDS011;3207;42.648;23.406;2022-10-16T06:45:49;56.22;;;35.63;;
6348;SDS011;3207;42.648;23.406;2022-10-16T06:48:18;49.97;;;38.30;;
6348;SDS011;3207;42.648;23.406;2022-10-16T06:50:54;45.33;;;35.75;;
6348;SDS011;3207;42.648;23.406;2022-10-16T06:53:22;47.35;;;36.20;;
6348;SDS011;3207;42.648;23.406;2022-10-16T06:55:49;49.50;;;37.90;;
6348;SDS011;3207;42.648;23.406;2022-10-16T06:58:16;46.70;;;36.65;;
6348;SDS011;3207;42.648;23.406;2022-10-16T07:00:42;47.78;;;37.53;;
6348;SDS011;3207;42.648;23.406;2022-10-16T07:03:09;44.78;;;36.00;;
6348;SDS011;3207;42.648;23.406;2022-10-16T07:05:38;45.55;;;37.42;;
6348;SDS011;3207;42.648;23.406;2022-10-16T07:08:05;53.70;;;39.05;;
6348;SDS011;3207;42.648;23.406;2022-10-16T07:10:32;48.58;;;36.58;;
6348;SDS011;3207;42.648;23.406;2022-10-16T07:12:59;46.15;;;36.17;;
6348;SDS011;3207;42.648;23.406;2022-10-16T07:15:26;49.33;;;38.10;;
6348;SDS011;3207;42.648;23.406;2022-10-16T07:17:52;49.17;;;38.85;;
6348;SDS011;3207;42.648;23.406;2022-10-16T07:20:19;46.50;;;36.70;;
6348;SDS011;3207;42.648;23.406;2022-10-16T07:22:48;47.95;;;38.60;;
6348;SDS011;3207;42.648;23.406;2022-10-16T07:25:15;49.33;;;38.05;;
6348;SDS011;3207;42.648;23.406;2022-10-16T07:27:42;51.15;;;38.70;;
6348;SDS011;3207;42.648;23.406;2022-10-16T07:30:09;48.55;;;38.95;;
6348;SDS011;3207;42.648;23.406;2022-10-16T07:32:36;46.03;;;36.45;;
6348;SDS011;3207;42.648;23.406;2022-10-16T07:35:03;45.05;;;37.25;;
6348;SDS011;3207;42.648;23.406;2022-10-16T07:37:30;45.70;;;35.28;;
6348;SDS011;3207;42.648;23.406;2022-10-16T07:39:58;47.30;;;37.97;;
6348;SDS011;3207;42.648;23.406;2022-10-16T07:42:26;47.28;;;36.75;;
6348;SDS011;3207;42.648;23.406;2022-10-16T07:44:53;46.47;;;36.70;;
6348;SDS011;3207;42.648;23.406;2022-10-16T07:47:20;43.83;;;35.20;;
6348;SDS011;3207;42.648;23.406;2022-10-16T07:49:47;45.15;;;36.17;;
6348;SDS011;3207;42.648;23.406;2022-10-16T07:52:13;47.70;;;36.05;;
6348;SDS011;3207;42.648;23.406;2022-10-16T07:54:40;43.03;;;34.00;;
6348;SDS011;3207;42.648;23.406;2022-10-16T07:57:08;45.13;;;35.70;;
6348;SDS011;3207;42.648;23.406;2022-10-16T07:59:35;39.67;;;33.65;;
6348;SDS011;3207;42.648;23.406;2022-10-16T08:02:02;39.85;;;33.33;;
6348;SDS011;3207;42.648;23.406;2022-10-16T08:04:29;42.45;;;32.63;;
6348;SDS011;3207;42.648;23.406;2022-10-16T08:06:56;35.70;;;31.33;;
6348;SDS011;3207;42.648;23.406;2022-10-16T08:09:22;36.80;;;32.13;;
6348;SDS011;3207;42.648;23.406;2022-10-16T08:11:49;38.33;;;33.83;;
6348;SDS011;3207;42.648;23.406;2022-10-16T08:14:19;39.63;;;33.17;;
6348;SDS011;3207;42.648;23.406;2022-10-16T08:16:45;38.17;;;30.55;;
6348;SDS011;3207;42.648;23.406;2022-10-16T08:19:12;41.40;;;34.03;;
6348;SDS011;3207;42.648;23.406;2022-10-16T08:21:40;35.70;;;31.52;;
6348;SDS011;3207;42.648;23.406;2022-10-16T08:24:08;43.17;;;34.55;;
6348;SDS011;3207;42.648;23.406;2022-10-16T08:26:35;39.28;;;33.35;;
6348;SDS011;3207;42.648;23.406;2022-10-16T08:29:02;40.95;;;33.13;;
6348;SDS011;3207;42.648;23.406;2022-10-16T08:31:30;42.30;;;34.05;;
6348;SDS011;3207;42.648;23.406;2022-10-16T08:33:57;35.97;;;32.08;;
6348;SDS011;3207;42.648;23.406;2022-10-16T08:36:23;38.47;;;34.08;;
6348;SDS011;3207;42.648;23.406;2022-10-16T08:38:50;36.17;;;31.90;;
6348;SDS011;3207;42.648;23.406;2022-10-16T08:47:17;37.95;;;32.13;;
6348;SDS011;3207;42.648;23.406;2022-10-16T08:49:50;40.50;;;34.30;;
6348;SDS011;3207;42.648;23.406;2022-10-16T08:52:21;42.95;;;34.20;;
6348;SDS011;3207;42.648;23.406;2022-10-16T08:54:50;41.22;;;34.70;;
6348;SDS011;3207;42.648;23.406;2022-10-16T08:57:21;40.78;;;32.90;;
6348;SDS011;3207;42.648;23.406;2022-10-16T08:59:51;41.03;;;33.22;;
6348;SDS011;3207;42.648;23.406;2022-10-16T09:02:26;41.08;;;35.47;;
6348;SDS011;3207;42.648;23.406;2022-10-16T09:05:00;41.53;;;34.75;;
6348;SDS011;3207;42.648;23.406;2022-10-16T09:07:38;37.67;;;33.58;;
6348;SDS011;3207;42.648;23.406;2022-10-16T09:10:16;36.55;;;32.53;;
6348;SDS011;3207;42.648;23.406;2022-10-16T09:12:53;37.63;;;31.65;;
6348;SDS011;3207;42.648;23.406;2022-10-16T09:15:27;38.38;;;33.67;;
6348;SDS011;3207;42.648;23.406;2022-10-16T09:18:01;40.00;;;35.50;;
6348;SDS011;3207;42.648;23.406;2022-10-16T09:20:34;39.67;;;35.35;;
6348;SDS011;3207;42.648;23.406;2022-10-16T09:23:16;43.72;;;36.10;;
6348;SDS011;3207;42.648;23.406;2022-10-16T09:25:45;37.83;;;33.75;;
6348;SDS011;3207;42.648;23.406;2022-10-16T09:28:14;36.33;;;32.60;;
6348;SDS011;3207;42.648;23.406;2022-10-16T09:30:41;37.95;;;34.00;;
6348;SDS011;3207;42.648;23.406;2022-10-16T09:33:10;31.73;;;28.20;;
6348;SDS011;3207;42.648;23.406;2022-10-16T09:35:38;30.67;;;27.67;;
6348;SDS011;3207;42.648;23.406;2022-10-16T09:38:06;35.58;;;32.35;;
6348;SDS011;3207;42.648;23.406;2022-10-16T09:40:35;35.15;;;32.05;;
6348;SDS011;3207;42.648;23.406;2022-10-16T09:43:10;38.72;;;35.30;;
6348;SDS011;3207;42.648;23.406;2022-10-16T09:45:53;39.42;;;36.05;;
6348;SDS011;3207;42.648;23.406;2022-10-16T09:48:22;38.45;;;35.10;;
6348;SDS011;3207;42.648;23.406;2022-10-16T09:51:01;33.15;;;30.25;;
6348;SDS011;3207;42.648;23.406;2022-10-16T09:53:38;34.80;;;31.90;;
6348;SDS011;3207;42.648;23.406;2022-10-16T09:56:07;34.20;;;31.50;;
6348;SDS011;3207;42.648;23.406;2022-10-16T09:58:41;32.40;;;29.90;;
6348;SDS011;3207;42.648;23.406;2022-10-16T10:01:11;33.78;;;30.95;;
6348;SDS011;3207;42.648;23.406;2022-10-16T10:03:41;34.38;;;31.38;;
6348;SDS011;3207;42.648;23.406;2022-10-16T10:06:16;32.60;;;29.90;;
6348;SDS011;3207;42.648;23.406;2022-10-16T10:08:56;32.03;;;29.52;;
6348;SDS011;3207;42.648;23.406;2022-10-16T10:11:45;34.47;;;31.55;;
6348;SDS011;3207;42.648;23.406;2022-10-16T10:14:18;30.55;;;28.20;;
6348;SDS011;3207;42.648;23.406;2022-10-16T10:16:48;28.52;;;26.23;;
6348;SDS011;3207;42.648;23.406;2022-10-16T10:19:18;27.08;;;24.90;;
6348;SDS011;3207;42.648;23.406;2022-10-16T10:21:47;28.50;;;26.27;;
6348;SDS011;3207;42.648;23.406;2022-10-16T10:24:15;28.40;;;26.08;;
6348;SDS011;3207;42.648;23.406;2022-10-16T10:26:46;28.30;;;25.95;;
6348;SDS011;3207;42.648;23.406;2022-10-16T10:29:36;27.02;;;25.02;;
6348;SDS011;3207;42.648;23.406;2022-10-16T10:32:17;30.58;;;28.08;;
6348;SDS011;3207;42.648;23.406;2022-10-16T10:34:59;33.42;;;30.73;;
6348;SDS011;3207;42.648;23.406;2022-10-16T10:40:34;27.13;;;25.00;;
6348;SDS011;3207;42.648;23.406;2022-10-16T10:43:08;28.70;;;26.52;;
6348;SDS011;3207;42.648;23.406;2022-10-16T10:45:46;29.50;;;27.13;;
6348;SDS011;3207;42.648;23.406;2022-10-16T10:48:25;26.42;;;24.52;;
6348;SDS011;3207;42.648;23.406;2022-10-16T10:51:10;29.63;;;27.42;;
6348;SDS011;3207;42.648;23.406;2022-10-16T10:53:47;27.55;;;25.35;;
6348;SDS011;3207;42.648;23.406;2022-10-16T10:56:24;26.15;;;24.02;;
6348;SDS011;3207;42.648;23.406;2022-10-16T10:59:11;25.50;;;23.33;;
6348;SDS011;3207;42.648;23.406;2022-10-16T11:01:55;27.65;;;25.38;;
6348;SDS011;3207;42.648;23.406;2022-10-16T11:04:34;26.38;;;24.27;;
6348;SDS011;3207;42.648;23.406;2022-10-16T11:07:27;25.73;;;23.63;;
6348;SDS011;3207;42.648;23.406;2022-10-16T11:09:58;23.83;;;21.92;;
6348;SDS011;3207;42.648;23.406;2022-10-16T11:12:30;25.20;;;23.08;;
6348;SDS011;3207;42.648;23.406;2022-10-16T11:15:03;25.33;;;23.00;;
6348;SDS011;3207;42.648;23.406;2022-10-16T11:17:39;26.10;;;23.80;;
6348;SDS011;3207;42.648;23.406;2022-10-16T11:20:12;25.30;;;23.08;;
6348;SDS011;3207;42.648;23.406;2022-10-16T11:22:44;24.10;;;22.00;;
6348;SDS011;3207;42.648;23.406;2022-10-16T11:25:16;25.13;;;23.05;;
6348;SDS011;3207;42.648;23.406;2022-10-16T11:27:49;23.25;;;21.25;;
6348;SDS011;3207;42.648;23.406;2022-10-16T11:30:19;22.27;;;20.48;;
6348;SDS011;3207;42.648;23.406;2022-10-16T11:32:50;24.13;;;21.80;;
6348;SDS011;3207;42.648;23.406;2022-10-16T11:35:30;27.45;;;25.10;;
6348;SDS011;3207;42.648;23.406;2022-10-16T11:38:09;26.05;;;23.85;;
6348;SDS011;3207;42.648;23.406;2022-10-16T11:40:42;27.02;;;24.63;;
6348;SDS011;3207;42.648;23.406;2022-10-16T11:43:14;27.33;;;25.02;;
6348;SDS011;3207;42.648;23.406;2022-10-16T11:45:43;30.95;;;28.15;;
6348;SDS011;3207;42.648;23.406;2022-10-16T11:48:18;29.77;;;26.90;;
6348;SDS011;3207;42.648;23.406;2022-10-16T11:50:52;29.00;;;26.33;;
6348;SDS011;3207;42.648;23.406;2022-10-16T11:53:23;29.95;;;27.02;;
6348;SDS011;3207;42.648;23.406;2022-10-16T11:56:02;30.60;;;27.98;;
6348;SDS011;3207;42.648;23.406;2022-10-16T11:58:30;30.60;;;27.70;;
6348;SDS011;3207;42.648;23.406;2022-10-16T12:01:03;31.88;;;29.10;;
6348;SDS011;3207;42.648;23.406;2022-10-16T12:03:44;33.20;;;29.95;;
6348;SDS011;3207;42.648;23.406;2022-10-16T12:06:20;29.20;;;26.48;;
6348;SDS011;3207;42.648;23.406;2022-10-16T12:08:54;29.65;;;27.05;;
6348;SDS011;3207;42.648;23.406;2022-10-16T12:11:31;30.67;;;27.92;;
6348;SDS011;3207;42.648;23.406;2022-10-16T12:14:17;30.25;;;27.60;;
6348;SDS011;3207;42.648;23.406;2022-10-16T12:16:53;31.95;;;29.02;;
6348;SDS011;3207;42.648;23.406;2022-10-16T12:19:22;29.15;;;26.35;;
6348;SDS011;3207;42.648;23.406;2022-10-16T12:21:50;29.42;;;26.67;;
6348;SDS011;3207;42.648;23.406;2022-10-16T12:24:26;30.52;;;28.02;;
6348;SDS011;3207;42.648;23.406;2022-10-16T12:26:58;32.90;;;29.73;;
6348;SDS011;3207;42.648;23.406;2022-10-16T12:29:29;32.00;;;28.83;;
6348;SDS011;3207;42.648;23.406;2022-10-16T12:32:00;33.53;;;30.20;;
6348;SDS011;3207;42.648;23.406;2022-10-16T12:34:29;30.95;;;28.17;;
6348;SDS011;3207;42.648;23.406;2022-10-16T12:37:11;31.73;;;28.58;;
6348;SDS011;3207;42.648;23.406;2022-10-16T12:39:43;29.52;;;26.77;;
6348;SDS011;3207;42.648;23.406;2022-10-16T12:42:20;29.38;;;26.65;;
6348;SDS011;3207;42.648;23.406;2022-10-16T12:44:50;31.23;;;28.20;;
6348;SDS011;3207;42.648;23.406;2022-10-16T12:47:21;30.15;;;27.25;;
6348;SDS011;3207;42.648;23.406;2022-10-16T12:49:50;27.92;;;25.25;;
6348;SDS011;3207;42.648;23.406;2022-10-16T12:52:27;28.52;;;25.80;;
6348;SDS011;3207;42.648;23.406;2022-10-16T12:54:57;31.33;;;28.30;;
6348;SDS011;3207;42.648;23.406;2022-10-16T12:57:37;29.70;;;26.63;;
6348;SDS011;3207;42.648;23.406;2022-10-16T13:00:18;26.85;;;24.25;;
6348;SDS011;3207;42.648;23.406;2022-10-16T13:05:59;29.38;;;26.33;;
6348;SDS011;3207;42.648;23.406;2022-10-16T13:08:39;29.23;;;26.35;;
6348;SDS011;3207;42.648;23.406;2022-10-16T13:11:23;28.83;;;26.20;;
6348;SDS011;3207;42.648;23.406;2022-10-16T13:13:59;29.52;;;26.65;;
6348;SDS011;3207;42.648;23.406;2022-10-16T13:16:43;29.83;;;27.02;;
6348;SDS011;3207;42.648;23.406;2022-10-16T13:19:22;29.48;;;26.65;;
6348;SDS011;3207;42.648;23.406;2022-10-16T13:21:56;25.30;;;22.88;;
6348;SDS011;3207;42.648;23.406;2022-10-16T13:24:40;30.90;;;27.85;;
6348;SDS011;3207;42.648;23.406;2022-10-16T13:27:18;29.80;;;26.98;;
6348;SDS011;3207;42.648;23.406;2022-10-16T13:30:00;29.25;;;26.45;;
6348;SDS011;3207;42.648;23.406;2022-10-16T13:32:35;30.33;;;27.42;;
6348;SDS011;3207;42.648;23.406;2022-10-16T13:35:02;27.05;;;24.45;;
6348;SDS011;3207;42.648;23.406;2022-10-16T13:37:44;27.35;;;24.02;;
6348;SDS011;3207;42.648;23.406;2022-10-16T13:40:12;29.40;;;26.50;;
6348;SDS011;3207;42.648;23.406;2022-10-16T13:42:47;29.60;;;26.13;;
6348;SDS011;3207;42.648;23.406;2022-10-16T13:45:18;30.45;;;27.35;;
6348;SDS011;3207;42.648;23.406;2022-10-16T13:47:46;27.58;;;24.95;;
6348;SDS011;3207;42.648;23.406;2022-10-16T13:50:14;28.77;;;25.33;;
6348;SDS011;3207;42.648;23.406;2022-10-16T13:52:43;26.25;;;23.65;;
6348;SDS011;3207;42.648;23.406;2022-10-16T13:55:10;28.98;;;26.08;;
6348;SDS011;3207;42.648;23.406;2022-10-16T13:57:38;32.15;;;29.15;;
6348;SDS011;3207;42.648;23.406;2022-10-16T14:00:18;29.65;;;26.80;;
6348;SDS011;3207;42.648;23.406;2022-10-16T14:02:50;28.08;;;25.27;;
6348;SDS011;3207;42.648;23.406;2022-10-16T14:05:21;30.02;;;24.13;;
6348;SDS011;3207;42.648;23.406;2022-10-16T14:07:49;25.55;;;22.95;;
6348;SDS011;3207;42.648;23.406;2022-10-16T14:10:21;25.77;;;23.17;;
6348;SDS011;3207;42.648;23.406;2022-10-16T14:12:55;27.35;;;24.45;;
6348;SDS011;3207;42.648;23.406;2022-10-16T14:15:25;30.08;;;24.50;;
6348;SDS011;3207;42.648;23.406;2022-10-16T14:17:52;26.95;;;23.40;;
6348;SDS011;3207;42.648;23.406;2022-10-16T14:20:20;23.73;;;21.25;;
6348;SDS011;3207;42.648;23.406;2022-10-16T14:22:57;25.27;;;22.83;;
6348;SDS011;3207;42.648;23.406;2022-10-16T14:25:27;26.40;;;23.80;;
6348;SDS011;3207;42.648;23.406;2022-10-16T14:28:02;26.10;;;23.33;;
6348;SDS011;3207;42.648;23.406;2022-10-16T14:30:32;25.35;;;22.92;;
6348;SDS011;3207;42.648;23.406;2022-10-16T14:33:01;27.38;;;24.52;;
6348;SDS011;3207;42.648;23.406;2022-10-16T14:35:30;26.02;;;23.40;;
6348;SDS011;3207;42.648;23.406;2022-10-16T14:37:59;32.03;;;28.92;;
6348;SDS011;3207;42.648;23.406;2022-10-16T14:40:28;26.42;;;22.50;;
6348;SDS011;3207;42.648;23.406;2022-10-16T14:42:56;34.80;;;31.10;;
6348;SDS011;3207;42.648;23.406;2022-10-16T14:45:24;28.75;;;25.65;;
6348;SDS011;3207;42.648;23.406;2022-10-16T14:47:55;25.50;;;22.77;;
6348;SDS011;3207;42.648;23.406;2022-10-16T14:50:24;24.95;;;22.52;;
6348;SDS011;3207;42.648;23.406;2022-10-16T14:52:51;25.08;;;22.52;;
6348;SDS011;3207;42.648;23.406;2022-10-16T14:55:18;27.60;;;24.83;;
6348;SDS011;3207;42.648;23.406;2022-10-16T14:57:45;30.80;;;27.70;;
6348;SDS011;3207;42.648;23.406;2022-10-16T15:00:14;27.38;;;24.52;;
6348;SDS011;3207;42.648;23.406;2022-10-16T15:02:44;24.38;;;21.70;;
6348;SDS011;3207;42.648;23.406;2022-10-16T15:05:15;23.42;;;21.27;;